Time;durP1;ratioP1;P1;durP2;ratioP2;P2;SDS_P1;SDS_P2;PMS_P1;PMS_P2;Temp;Humidity;BMP_temperature;BMP_pressure;BME280_temperature;BME280_humidity;BME280_pressure;Samples;Min_cycle;Max_cycle;Signal;HPM_P1;HPM_P2
2021/09/26 00:02:16;;;;;;;;;;;14.70;99.90;;;;;;5051333;28;19913;-74
2021/09/26 00:04:42;;;;;;;;;;;14.70;99.90;;;;;;5066189;28;20372;-74
2021/09/26 00:07:08;;;;;;;;;;;14.70;99.90;;;;;;5035088;28;20524;-74
2021/09/26 00:09:34;;;;;;;;;;;14.80;99.90;;;;;;5053750;28;19959;-74
2021/09/26 00:11:59;;;;;;;;;;;14.80;99.90;;;;;;5053958;28;19928;-74
2021/09/26 00:14:25;;;;;;;;;;;14.70;99.90;;;;;;5053283;28;19916;-74
2021/09/26 00:16:50;;;;;;;;;;;14.80;99.90;;;;;;5036637;28;20202;-74
2021/09/26 00:19:16;;;;;;;;;;;14.80;99.90;;;;;;5052899;28;19924;-74
2021/09/26 00:21:42;;;;;;;;;;;14.80;99.90;;;;;;5036417;28;19917;-74
2021/09/26 00:24:07;;;;;;;;;;;14.80;99.90;;;;;;5053718;28;20331;-74
2021/09/26 00:26:33;;;;;;;;;;;14.70;99.90;;;;;;5055560;28;20322;-74
2021/09/26 00:28:58;;;;;;;;;;;14.60;99.90;;;;;;5042636;28;19928;-74
2021/09/26 00:31:24;;;;;;;;;;;14.60;99.90;;;;;;5052665;28;19970;-74
2021/09/26 00:33:50;;;;;;;;;;;14.60;99.90;;;;;;5057527;28;20007;-74
2021/09/26 00:36:15;;;;;;;;;;;14.70;99.90;;;;;;5058153;28;19916;-74
2021/09/26 00:38:41;;;;;;;;;;;14.70;99.90;;;;;;5057680;28;19913;-74
2021/09/26 00:41:06;;;;;;;;;;;14.70;99.90;;;;;;5057209;28;19960;-74
2021/09/26 00:43:32;;;;;;;;;;;14.70;99.90;;;;;;5056989;28;20310;-74
2021/09/26 00:45:57;;;;;;;;;;;14.70;99.90;;;;;;5040123;28;19999;-75
2021/09/26 00:48:23;;;;;;;;;;;14.70;99.90;;;;;;5057000;28;19921;-74
2021/09/26 00:50:48;;;;;;;;;;;14.80;99.90;;;;;;5039255;28;19913;-74
2021/09/26 00:53:17;;;;;;;;;;;14.70;99.90;;;;;;5057238;28;20003;-75
2021/09/26 00:55:42;;;;;;;;;;;14.80;99.90;;;;;;5056210;28;19921;-74
2021/09/26 00:58:08;;;;;;;;;;;14.80;99.90;;;;;;5057219;28;20220;-74
2021/09/26 01:00:33;;;;;;;;;;;14.70;99.90;;;;;;5057000;28;19982;-74
2021/09/26 01:02:59;;;;;;;;;;;14.70;99.90;;;;;;5055938;28;19924;-75
2021/09/26 01:05:26;;;;;;;;;;;14.70;99.90;;;;;;5044796;28;19939;-75
2021/09/26 01:08:01;;;;;;;;;;;14.70;99.90;;;;;;5046315;28;19920;-74
2021/09/26 01:10:40;;;;;;;;;;;14.70;99.90;;;;;;5077968;28;19963;-75
2021/09/26 01:13:24;;;;;;;;;;;14.70;99.90;;;;;;5051266;28;19917;-74
2021/09/26 01:16:09;;;;;;;;;;;14.70;99.90;;;;;;5063779;28;19961;-75
2021/09/26 01:18:50;;;;;;;;;;;14.70;99.90;;;;;;5056460;28;19916;-74
2021/09/26 01:21:18;;;;;;;;;;;14.70;99.90;;;;;;5054192;28;20299;-73
2021/09/26 01:23:50;;;;;;;;;;;14.70;99.90;;;;;;5062027;28;19921;-74
2021/09/26 01:26:35;;;;;;;;;;;14.80;99.90;;;;;;5053485;28;21211;-74
2021/09/26 01:29:14;;;;;;;;;;;14.90;99.90;;;;;;5055925;28;19928;-74
2021/09/26 01:31:44;;;;;;;;;;;15.00;99.90;;;;;;5038878;28;20267;-74
2021/09/26 01:34:25;;;;;;;;;;;15.00;99.90;;;;;;5056436;28;19946;-74
2021/09/26 01:36:56;;;;;;;;;;;15.10;99.90;;;;;;5047995;28;19917;-74
2021/09/26 01:39:23;;;;;;;;;;;15.10;99.90;;;;;;5044433;28;20015;-75
2021/09/26 01:41:58;;;;;;;;;;;15.10;99.90;;;;;;5053833;28;19912;-74
2021/09/26 01:44:38;;;;;;;;;;;15.00;99.90;;;;;;5038904;28;19927;-74
2021/09/26 01:47:05;;;;;;;;;;;15.10;99.90;;;;;;5052162;28;19964;-74
2021/09/26 01:49:37;;;;;;;;;;;15.10;99.90;;;;;;5035631;28;20308;-74
2021/09/26 01:52:04;;;;;;;;;;;15.10;99.90;;;;;;5044863;28;20415;-74
2021/09/26 01:54:30;;;;;;;;;;;15.10;99.90;;;;;;5049838;28;19913;-74
2021/09/26 01:56:55;;;;;;;;;;;15.20;99.90;;;;;;5056127;28;20231;-74
2021/09/26 01:59:22;;;;;;;;;;;15.20;99.90;;;;;;5057754;28;19917;-74
2021/09/26 02:01:48;;;;;;;;;;;15.10;99.90;;;;;;5055868;28;20220;-75
2021/09/26 02:04:15;;;;;;;;;;;15.10;99.90;;;;;;5038197;28;19919;-74
2021/09/26 02:06:41;;;;;;;;;;;15.10;99.90;;;;;;5044437;28;19912;-74
2021/09/26 02:09:09;;;;;;;;;;;15.10;99.90;;;;;;5055708;28;19921;-75
2021/09/26 02:11:35;;;;;;;;;;;15.10;99.90;;;;;;5055790;28;19936;-74
2021/09/26 02:14:02;;;;;;;;;;;15.10;99.90;;;;;;5039348;28;20414;-74
2021/09/26 02:16:28;;;;;;;;;;;15.10;99.90;;;;;;5063069;28;19919;-74
2021/09/26 02:18:54;;;;;;;;;;;15.00;99.90;;;;;;5061739;28;19913;-74
2021/09/26 02:21:20;;;;;;;;;;;15.00;99.90;;;;;;5060061;28;20318;-73
2021/09/26 02:23:46;;;;;;;;;;;15.00;99.90;;;;;;5037190;28;19943;-74
2021/09/26 02:26:13;;;;;;;;;;;14.90;99.90;;;;;;5059221;28;20259;-74
2021/09/26 02:28:39;;;;;;;;;;;14.90;99.90;;;;;;5053516;28;19916;-74
2021/09/26 02:31:07;;;;;;;;;;;14.80;99.90;;;;;;5055608;28;19913;-74
2021/09/26 02:33:34;;;;;;;;;;;14.80;99.90;;;;;;5023355;28;20204;-74
2021/09/26 02:35:59;;;;;;;;;;;14.80;99.90;;;;;;5037791;28;19913;-74
2021/09/26 02:38:25;;;;;;;;;;;14.70;99.90;;;;;;5055334;28;19927;-74
2021/09/26 02:40:54;;;;;;;;;;;14.70;99.90;;;;;;5037299;28;20284;-74
2021/09/26 02:43:23;;;;;;;;;;;14.70;99.90;;;;;;5059623;28;20312;-74
2021/09/26 02:45:53;;;;;;;;;;;14.60;99.90;;;;;;5039366;28;19917;-74
2021/09/26 02:48:22;;;;;;;;;;;14.70;99.90;;;;;;5062483;28;20311;-74
2021/09/26 02:50:48;;;;;;;;;;;14.60;99.90;;;;;;5039233;28;19913;-74
2021/09/26 02:53:14;;;;;;;;;;;14.50;99.90;;;;;;5037693;28;20213;-74
2021/09/26 02:55:41;;;;;;;;;;;14.50;99.90;;;;;;5051288;28;19967;-76
2021/09/26 02:58:07;;;;;;;;;;;14.50;99.90;;;;;;5039068;28;20293;-74
2021/09/26 03:00:34;;;;;;;;;;;14.40;99.90;;;;;;5052639;28;19912;-75
2021/09/26 03:03:06;;;;;;;;;;;14.40;99.90;;;;;;5054134;28;19912;-74
2021/09/26 03:05:32;;;;;;;;;;;14.30;99.90;;;;;;5053795;28;20012;-74
2021/09/26 03:07:58;;;;;;;;;;;14.30;99.90;;;;;;5048058;28;20628;-74
2021/09/26 03:10:23;;;;;;;;;;;14.30;99.90;;;;;;5054357;28;19916;-74
2021/09/26 03:12:49;;;;;;;;;;;14.30;99.90;;;;;;5053584;28;19921;-75
2021/09/26 03:15:14;;;;;;;;;;;14.30;99.90;;;;;;5053977;28;19966;-74
2021/09/26 03:17:40;;;;;;;;;;;14.30;99.90;;;;;;5054362;28;19913;-74
2021/09/26 03:20:06;;;;;;;;;;;14.30;99.90;;;;;;5054453;28;19986;-74
2021/09/26 03:22:31;;;;;;;;;;;14.20;99.90;;;;;;5053672;28;20067;-74
2021/09/26 03:24:57;;;;;;;;;;;14.20;99.90;;;;;;5060712;28;19921;-74
2021/09/26 03:27:23;;;;;;;;;;;14.30;99.90;;;;;;5054776;28;19956;-74
2021/09/26 03:29:51;;;;;;;;;;;14.30;99.90;;;;;;5054454;28;19916;-74
2021/09/26 03:32:17;;;;;;;;;;;14.30;99.90;;;;;;5053509;28;19924;-74
2021/09/26 03:34:42;;;;;;;;;;;14.30;99.90;;;;;;5036630;28;19938;-74
2021/09/26 03:37:08;;;;;;;;;;;14.20;99.90;;;;;;5053326;28;19964;-74
2021/09/26 03:39:35;;;;;;;;;;;14.20;99.90;;;;;;5054134;28;19917;-74
2021/09/26 03:42:00;;;;;;;;;;;14.20;99.90;;;;;;5053662;28;19913;-74
2021/09/26 03:44:26;;;;;;;;;;;14.20;99.90;;;;;;5053761;28;20230;-73
2021/09/26 03:46:52;;;;;;;;;;;14.20;99.90;;;;;;5047853;28;19924;-75
2021/09/26 03:49:18;;;;;;;;;;;14.10;99.90;;;;;;5053287;28;19994;-74
2021/09/26 03:51:44;;;;;;;;;;;14.10;99.90;;;;;;5053439;28;19913;-74
2021/09/26 03:54:10;;;;;;;;;;;14.10;99.90;;;;;;5054147;28;20311;-75
2021/09/26 03:56:35;;;;;;;;;;;14.00;99.90;;;;;;5052682;28;19916;-74
2021/09/26 03:59:01;;;;;;;;;;;14.00;99.90;;;;;;5051644;28;20315;-74
2021/09/26 04:01:27;;;;;;;;;;;14.00;99.90;;;;;;5031419;28;19944;-75
2021/09/26 04:03:52;;;;;;;;;;;14.00;99.90;;;;;;5035102;28;19966;-74
2021/09/26 04:06:18;;;;;;;;;;;14.00;99.90;;;;;;5054171;28;19913;-74
2021/09/26 04:08:43;;;;;;;;;;;14.00;99.90;;;;;;5053183;28;20285;-74
2021/09/26 04:11:09;;;;;;;;;;;14.00;99.90;;;;;;5053850;28;19913;-74
2021/09/26 04:13:35;;;;;;;;;;;14.00;99.90;;;;;;5036083;28;19917;-74
2021/09/26 04:16:01;;;;;;;;;;;14.00;99.90;;;;;;5048842;28;19923;-74
2021/09/26 04:18:27;;;;;;;;;;;14.00;99.90;;;;;;5054157;28;20219;-74
2021/09/26 04:20:53;;;;;;;;;;;14.00;99.90;;;;;;5051652;28;20145;-74
2021/09/26 04:23:18;;;;;;;;;;;13.90;99.90;;;;;;5053509;28;20329;-74
2021/09/26 04:25:44;;;;;;;;;;;13.90;99.90;;;;;;5053526;28;19938;-74
2021/09/26 04:28:10;;;;;;;;;;;13.80;99.90;;;;;;5061940;28;19920;-75
2021/09/26 04:30:36;;;;;;;;;;;13.70;99.90;;;;;;5054235;28;20053;-74
2021/09/26 04:33:03;;;;;;;;;;;13.70;99.90;;;;;;5030106;28;20008;-74
2021/09/26 04:35:28;;;;;;;;;;;13.70;99.90;;;;;;5052867;28;19919;-74
2021/09/26 04:37:54;;;;;;;;;;;13.70;99.90;;;;;;5052569;28;19912;-75
2021/09/26 04:40:20;;;;;;;;;;;13.70;99.90;;;;;;5053770;28;19905;-74
2021/09/26 04:42:45;;;;;;;;;;;13.70;99.90;;;;;;5053325;28;20288;-74
2021/09/26 04:45:11;;;;;;;;;;;13.70;99.90;;;;;;5053974;28;19913;-74
2021/09/26 04:47:37;;;;;;;;;;;13.70;99.90;;;;;;5037473;28;20015;-73
2021/09/26 04:50:04;;;;;;;;;;;13.80;99.90;;;;;;5051999;28;19921;-74
2021/09/26 04:52:30;;;;;;;;;;;13.80;99.90;;;;;;5035931;28;20285;-74
2021/09/26 04:54:55;;;;;;;;;;;13.80;99.90;;;;;;5053458;28;19948;-74
2021/09/26 04:57:21;;;;;;;;;;;13.80;99.90;;;;;;5047809;28;20457;-75
2021/09/26 04:59:47;;;;;;;;;;;13.70;99.90;;;;;;5053103;28;19919;-74
2021/09/26 05:02:12;;;;;;;;;;;13.70;99.90;;;;;;5035171;28;19924;-74
2021/09/26 05:04:38;;;;;;;;;;;13.80;99.90;;;;;;5053076;28;19948;-74
2021/09/26 05:07:03;;;;;;;;;;;13.80;99.90;;;;;;5035249;28;19919;-75
2021/09/26 05:09:29;;;;;;;;;;;13.70;99.90;;;;;;5052878;28;19948;-74
2021/09/26 05:11:55;;;;;;;;;;;13.70;99.90;;;;;;5035545;28;20304;-74
2021/09/26 05:14:20;;;;;;;;;;;13.80;99.90;;;;;;5046837;28;19909;-73
2021/09/26 05:16:46;;;;;;;;;;;13.80;99.90;;;;;;5056242;28;20702;-74
2021/09/26 05:19:12;;;;;;;;;;;13.90;99.90;;;;;;5055270;28;20335;-74
2021/09/26 05:21:37;;;;;;;;;;;13.90;99.90;;;;;;5050255;28;19909;-73
2021/09/26 05:24:03;;;;;;;;;;;13.90;99.90;;;;;;5041024;28;19921;-74
2021/09/26 05:26:29;;;;;;;;;;;13.90;99.90;;;;;;5058668;28;19912;-74
2021/09/26 05:28:54;;;;;;;;;;;13.90;99.90;;;;;;5054640;28;19917;-74
2021/09/26 05:31:20;;;;;;;;;;;13.90;99.90;;;;;;5033076;28;21025;-73
2021/09/26 05:33:46;;;;;;;;;;;13.90;99.90;;;;;;5051809;28;19927;-73
2021/09/26 05:36:11;;;;;;;;;;;14.00;99.90;;;;;;5046852;28;19917;-73
2021/09/26 05:38:37;;;;;;;;;;;14.00;99.90;;;;;;5045536;28;19959;-74
2021/09/26 05:41:03;;;;;;;;;;;14.00;99.90;;;;;;5055641;28;20327;-74
2021/09/26 05:43:29;;;;;;;;;;;14.00;99.90;;;;;;5035571;28;19913;-74
2021/09/26 05:45:54;;;;;;;;;;;14.00;99.90;;;;;;5049423;28;19912;-74
2021/09/26 05:48:20;;;;;;;;;;;14.10;99.90;;;;;;5036791;28;19917;-74
2021/09/26 05:50:45;;;;;;;;;;;14.10;99.90;;;;;;5051492;28;19912;-73
2021/09/26 05:53:11;;;;;;;;;;;14.10;99.90;;;;;;5032510;28;19924;-74
2021/09/26 05:55:37;;;;;;;;;;;14.10;99.90;;;;;;5048092;28;19975;-74
2021/09/26 05:58:02;;;;;;;;;;;14.10;99.90;;;;;;5047385;28;19940;-74
2021/09/26 06:00:28;;;;;;;;;;;14.10;99.90;;;;;;5052620;28;19916;-73
2021/09/26 06:02:53;;;;;;;;;;;14.20;99.90;;;;;;5059167;28;19920;-74
2021/09/26 06:05:21;;;;;;;;;;;14.20;99.90;;;;;;5062360;28;19919;-74
2021/09/26 06:07:47;;;;;;;;;;;14.20;99.90;;;;;;5062610;28;20319;-74
2021/09/26 06:10:12;;;;;;;;;;;14.30;99.90;;;;;;5066758;28;20003;-74
2021/09/26 06:12:38;;;;;;;;;;;14.30;99.90;;;;;;5047652;28;20320;-74
2021/09/26 06:15:04;;;;;;;;;;;14.40;99.90;;;;;;5062661;28;19913;-75
2021/09/26 06:17:32;;;;;;;;;;;14.40;99.90;;;;;;5065695;28;19970;-75
2021/09/26 06:19:59;;;;;;;;;;;14.40;99.90;;;;;;5064204;28;19920;-74
2021/09/26 06:22:25;;;;;;;;;;;14.40;99.90;;;;;;5045510;28;19966;-75
2021/09/26 06:24:53;;;;;;;;;;;14.50;99.90;;;;;;5062329;28;19920;-74
2021/09/26 06:27:19;;;;;;;;;;;14.50;99.90;;;;;;5060884;28;19943;-74
2021/09/26 06:29:45;;;;;;;;;;;14.50;99.90;;;;;;5065465;28;19913;-74
2021/09/26 06:32:10;;;;;;;;;;;14.50;99.90;;;;;;5062661;28;19919;-74
2021/09/26 06:34:36;;;;;;;;;;;14.50;99.90;;;;;;5064062;28;20212;-75
2021/09/26 06:37:02;;;;;;;;;;;14.60;99.90;;;;;;5062852;28;19920;-74
2021/09/26 06:39:28;;;;;;;;;;;14.60;99.90;;;;;;5062332;28;20284;-74
2021/09/26 06:41:53;;;;;;;;;;;14.70;99.90;;;;;;5063382;28;19916;-74
2021/09/26 06:44:19;;;;;;;;;;;14.70;99.90;;;;;;5063173;28;19970;-74
2021/09/26 06:46:44;;;;;;;;;;;14.70;99.90;;;;;;5046838;28;19936;-74
2021/09/26 06:49:11;;;;;;;;;;;14.70;99.90;;;;;;5036269;28;19960;-75
2021/09/26 06:51:36;;;;;;;;;;;14.70;99.90;;;;;;5062400;28;20296;-74
2021/09/26 06:54:02;;;;;;;;;;;14.70;99.90;;;;;;5060802;28;19951;-75
2021/09/26 06:56:28;;;;;;;;;;;14.70;99.90;;;;;;5061499;28;20275;-74
2021/09/26 06:58:53;;;;;;;;;;;14.80;99.90;;;;;;5063329;28;19913;-73
2021/09/26 07:01:19;;;;;;;;;;;14.80;99.90;;;;;;5060464;28;19926;-74
2021/09/26 07:03:44;;;;;;;;;;;14.80;99.90;;;;;;5061590;28;19916;-74
2021/09/26 07:06:11;;;;;;;;;;;14.80;99.90;;;;;;5063124;28;19936;-73
2021/09/26 07:08:37;;;;;;;;;;;14.90;99.90;;;;;;5060382;28;20346;-74
2021/09/26 07:11:03;;;;;;;;;;;14.90;99.90;;;;;;5064034;28;19913;-73
2021/09/26 07:13:29;;;;;;;;;;;14.90;99.90;;;;;;5041507;28;19974;-74
2021/09/26 07:15:54;;;;;;;;;;;14.90;99.90;;;;;;5055959;28;19924;-74
2021/09/26 07:18:20;;;;;;;;;;;14.90;99.90;;;;;;5036475;28;19919;-74
2021/09/26 07:20:45;;;;;;;;;;;15.00;99.90;;;;;;5036746;28;19979;-75
2021/09/26 07:23:11;;;;;;;;;;;15.00;99.90;;;;;;5037937;28;19956;-74
2021/09/26 07:25:37;;;;;;;;;;;15.10;99.90;;;;;;5062620;28;20050;-73
2021/09/26 07:28:03;;;;;;;;;;;15.10;99.90;;;;;;5060256;28;19928;-74
2021/09/26 07:30:28;;;;;;;;;;;15.10;99.90;;;;;;5040486;28;19971;-74
2021/09/26 07:32:54;;;;;;;;;;;15.20;99.90;;;;;;5062223;28;19926;-74
2021/09/26 07:35:20;;;;;;;;;;;15.20;99.90;;;;;;5062883;28;19917;-74
2021/09/26 07:37:45;;;;;;;;;;;15.20;99.90;;;;;;5062785;28;19924;-74
2021/09/26 07:40:11;;;;;;;;;;;15.20;99.90;;;;;;5060838;28;19917;-74
2021/09/26 07:42:36;;;;;;;;;;;15.30;99.90;;;;;;5061434;28;19920;-74
2021/09/26 07:45:05;;;;;;;;;;;15.30;99.90;;;;;;5064025;28;20227;-74
2021/09/26 07:47:31;;;;;;;;;;;15.30;99.90;;;;;;5060380;28;19921;-73
2021/09/26 07:49:57;;;;;;;;;;;15.30;99.90;;;;;;5045318;28;19917;-74
2021/09/26 07:52:23;;;;;;;;;;;15.30;99.90;;;;;;5061440;28;20326;-73
2021/09/26 07:54:50;;;;;;;;;;;15.40;99.90;;;;;;5059118;28;19958;-73
2021/09/26 07:57:16;;;;;;;;;;;15.50;99.90;;;;;;5062610;28;19916;-74
2021/09/26 07:59:42;;;;;;;;;;;15.50;99.90;;;;;;5057664;28;19955;-73
2021/09/26 08:02:07;;;;;;;;;;;15.70;99.90;;;;;;5055440;28;19917;-75
2021/09/26 08:04:34;;;;;;;;;;;15.80;99.90;;;;;;5053598;28;19913;-74
2021/09/26 08:06:59;;;;;;;;;;;15.90;99.90;;;;;;5053460;28;19923;-76
2021/09/26 08:09:25;;;;;;;;;;;16.00;99.90;;;;;;5047733;28;19917;-73
2021/09/26 08:11:51;;;;;;;;;;;16.10;99.90;;;;;;5052361;28;19962;-74
2021/09/26 08:14:16;;;;;;;;;;;16.20;99.90;;;;;;5035912;28;19924;-74
2021/09/26 08:16:42;;;;;;;;;;;16.20;99.90;;;;;;5051125;28;19922;-74
2021/09/26 08:19:07;;;;;;;;;;;16.20;99.90;;;;;;5036643;28;20004;-75
2021/09/26 08:21:33;;;;;;;;;;;16.20;99.90;;;;;;5049182;28;19921;-75
2021/09/26 08:23:58;;;;;;;;;;;16.20;99.90;;;;;;5029836;28;20555;-74
2021/09/26 08:26:24;;;;;;;;;;;16.30;99.90;;;;;;5050923;28;19913;-75
2021/09/26 08:28:50;;;;;;;;;;;16.30;99.90;;;;;;5051653;28;19960;-75
2021/09/26 08:31:15;;;;;;;;;;;16.30;99.90;;;;;;5028690;28;19971;-75
2021/09/26 08:33:41;;;;;;;;;;;16.40;99.90;;;;;;5046964;28;19963;-76
2021/09/26 08:36:07;;;;;;;;;;;16.40;99.90;;;;;;5051816;28;19921;-75
2021/09/26 08:38:32;;;;;;;;;;;16.40;99.90;;;;;;5057285;28;19991;-76
2021/09/26 08:40:58;;;;;;;;;;;16.40;99.90;;;;;;5056823;28;19921;-75
2021/09/26 08:43:24;;;;;;;;;;;16.50;99.90;;;;;;5045212;28;19913;-74
2021/09/26 08:45:50;;;;;;;;;;;16.50;99.90;;;;;;5032126;28;20295;-75
2021/09/26 08:48:15;;;;;;;;;;;16.60;99.90;;;;;;5036166;28;20323;-75
2021/09/26 08:50:44;;;;;;;;;;;16.70;99.90;;;;;;5056594;28;20003;-75
2021/09/26 08:53:10;;;;;;;;;;;16.80;99.90;;;;;;5056782;28;19913;-74
2021/09/26 08:55:35;;;;;;;;;;;16.90;99.90;;;;;;5036775;28;19975;-75
2021/09/26 08:58:01;;;;;;;;;;;16.90;99.90;;;;;;5052023;28;19916;-75
2021/09/26 09:00:27;;;;;;;;;;;17.00;99.90;;;;;;5057270;28;19963;-75
2021/09/26 09:02:53;;;;;;;;;;;17.10;99.90;;;;;;5055847;28;19924;-75
2021/09/26 09:05:36;;;;;;;;;;;17.10;99.90;;;;;;5055952;28;20315;-75
2021/09/26 09:08:02;;;;;;;;;;;17.20;99.90;;;;;;5033301;28;20008;-78
2021/09/26 09:10:38;;;;;;;;;;;17.20;99.90;;;;;;5052872;28;19917;-76
2021/09/26 09:13:05;;;;;;;;;;;17.30;99.90;;;;;;5054599;28;19921;-77
2021/09/26 09:15:30;;;;;;;;;;;17.50;99.90;;;;;;5037485;28;20350;-75
2021/09/26 09:18:00;;;;;;;;;;;17.70;99.90;;;;;;5048701;28;19916;-75
2021/09/26 09:20:27;;;;;;;;;;;17.90;99.90;;;;;;5038378;28;19921;-79
2021/09/26 09:22:57;;;;;;;;;;;18.00;99.90;;;;;;5033185;28;19929;-74
2021/09/26 09:25:35;;;;;;;;;;;18.00;99.90;;;;;;5060479;28;19923;-80
2021/09/26 09:28:01;;;;;;;;;;;18.10;99.90;;;;;;5046849;28;19943;-75
2021/09/26 09:30:37;;;;;;;;;;;18.10;99.90;;;;;;5057014;28;20672;-76
2021/09/26 09:33:03;;;;;;;;;;;18.10;99.90;;;;;;5062495;28;19921;-78
2021/09/26 09:35:34;;;;;;;;;;;18.30;99.90;;;;;;5056882;28;19956;-78
2021/09/26 09:38:00;;;;;;;;;;;18.50;99.90;;;;;;5031315;28;19956;-78
2021/09/26 09:40:25;;;;;;;;;;;18.60;99.90;;;;;;5058716;28;19956;-76
2021/09/26 09:42:52;;;;;;;;;;;18.70;99.90;;;;;;5060551;28;20475;-78
2021/09/26 09:45:20;;;;;;;;;;;18.70;99.90;;;;;;5059970;28;19956;-79
2021/09/26 09:47:54;;;;;;;;;;;18.80;99.90;;;;;;5060015;28;19917;-78
2021/09/26 09:50:20;;;;;;;;;;;19.00;99.90;;;;;;5060259;28;20367;-78
2021/09/26 09:52:53;;;;;;;;;;;19.30;99.90;;;;;;5031750;28;20020;-76
2021/09/26 09:55:19;;;;;;;;;;;19.50;99.90;;;;;;5058245;28;19923;-79
2021/09/26 09:57:45;;;;;;;;;;;19.50;99.90;;;;;;5030379;28;20310;-76
2021/09/26 10:00:15;;;;;;;;;;;19.60;99.90;;;;;;5061983;28;19985;-78
2021/09/26 10:02:41;;;;;;;;;;;19.70;99.90;;;;;;5064184;28;19913;-79
2021/09/26 10:05:06;;;;;;;;;;;19.90;99.90;;;;;;5061647;28;19966;-79
2021/09/26 10:07:32;;;;;;;;;;;20.00;99.90;;;;;;5065199;28;19960;-78
2021/09/26 10:09:58;;;;;;;;;;;20.20;99.90;;;;;;5065086;28;20263;-78
2021/09/26 10:12:26;;;;;;;;;;;20.40;99.90;;;;;;5064129;28;19963;-77
2021/09/26 10:15:00;;;;;;;;;;;20.60;99.90;;;;;;5042395;28;20003;-79
2021/09/26 10:17:26;;;;;;;;;;;20.70;99.90;;;;;;5059149;28;20269;-79
2021/09/26 10:19:52;;;;;;;;;;;20.80;99.90;;;;;;5056778;28;19969;-75
2021/09/26 10:22:18;;;;;;;;;;;20.90;99.90;;;;;;5037258;28;19957;-77
2021/09/26 10:24:45;;;;;;;;;;;21.10;99.90;;;;;;5061540;28;20328;-75
2021/09/26 10:27:11;;;;;;;;;;;21.20;99.90;;;;;;5036543;28;19940;-75
2021/09/26 10:29:38;;;;;;;;;;;21.40;99.90;;;;;;5052061;28;19939;-75
2021/09/26 10:32:05;;;;;;;;;;;21.40;99.90;;;;;;5056358;28;20414;-75
2021/09/26 10:34:31;;;;;;;;;;;21.40;99.90;;;;;;5061539;28;20486;-75
2021/09/26 10:36:57;;;;;;;;;;;21.50;99.90;;;;;;5025557;28;20485;-74
2021/09/26 10:39:25;;;;;;;;;;;21.60;99.90;;;;;;5060203;28;19921;-75
2021/09/26 10:42:10;;;;;;;;;;;21.60;99.90;;;;;;5062801;28;19913;-75
2021/09/26 10:44:38;;;;;;;;;;;21.60;99.90;;;;;;5059883;28;19955;-75
2021/09/26 10:47:08;;;;;;;;;;;21.70;99.90;;;;;;5059415;28;19916;-75
2021/09/26 10:49:40;;;;;;;;;;;21.70;99.90;;;;;;5062371;28;19928;-76
2021/09/26 10:52:25;;;;;;;;;;;21.60;99.90;;;;;;5062254;28;19916;-76
2021/09/26 10:54:51;;;;;;;;;;;21.60;99.90;;;;;;5046647;28;19985;-75
2021/09/26 10:57:19;;;;;;;;;;;21.50;99.90;;;;;;5063606;28;20253;-79
2021/09/26 10:59:54;;;;;;;;;;;21.50;99.90;;;;;;5041978;28;20296;-75
2021/09/26 11:02:23;;;;;;;;;;;21.30;99.90;;;;;;5062372;28;19924;-77
2021/09/26 11:04:49;;;;;;;;;;;21.30;99.90;;;;;;5047551;28;19930;-78
2021/09/26 11:07:16;;;;;;;;;;;21.20;99.90;;;;;;5060549;28;19913;-76
2021/09/26 11:09:51;;;;;;;;;;;21.20;99.90;;;;;;5040794;28;19920;-78
2021/09/26 11:12:35;;;;;;;;;;;21.20;99.90;;;;;;5040914;28;19913;-79
2021/09/26 11:15:06;;;;;;;;;;;21.20;99.90;;;;;;5064233;28;19971;-79
2021/09/26 11:17:45;;;;;;;;;;;21.30;99.90;;;;;;5061648;28;19932;-79
2021/09/26 11:20:11;;;;;;;;;;;21.30;99.90;;;;;;5032456;28;19927;-77
2021/09/26 11:22:37;;;;;;;;;;;21.30;99.90;;;;;;5061894;28;19923;-78
2021/09/26 11:25:03;;;;;;;;;;;21.40;99.90;;;;;;5056448;28;20228;-76
2021/09/26 11:27:34;;;;;;;;;;;21.50;99.90;;;;;;5037090;28;19956;-79
2021/09/26 11:29:59;;;;;;;;;;;21.60;99.90;;;;;;5052134;28;20295;-78
2021/09/26 11:32:25;;;;;;;;;;;21.80;99.90;;;;;;5036473;28;19913;-78
2021/09/26 11:34:52;;;;;;;;;;;22.00;99.90;;;;;;5033827;28;19917;-75
2021/09/26 11:37:38;;;;;;;;;;;22.10;99.90;;;;;;5061039;28;20379;-76
2021/09/26 11:40:08;;;;;;;;;;;22.20;99.90;;;;;;5061958;28;19913;-79
2021/09/26 11:42:35;;;;;;;;;;;22.30;99.90;;;;;;5029909;28;19917;-78
2021/09/26 11:45:02;;;;;;;;;;;22.40;99.90;;;;;;5046994;28;20289;-77
2021/09/26 11:47:28;;;;;;;;;;;22.60;99.90;;;;;;5053200;28;19999;-79
2021/09/26 11:50:01;;;;;;;;;;;22.70;99.90;;;;;;5051030;28;20003;-76
2021/09/26 11:52:26;;;;;;;;;;;22.80;99.90;;;;;;5053590;28;19917;-79
2021/09/26 11:54:58;;;;;;;;;;;22.90;99.90;;;;;;5052013;28;19917;-80
2021/09/26 11:57:24;;;;;;;;;;;23.00;99.90;;;;;;5050811;28;19917;-76
2021/09/26 11:59:50;;;;;;;;;;;23.10;99.90;;;;;;5051781;28;20235;-80
2021/09/26 12:02:16;;;;;;;;;;;23.10;99.90;;;;;;5053428;28;20267;-75
2021/09/26 12:04:42;;;;;;;;;;;23.20;99.90;;;;;;5036782;28;19917;-79
2021/09/26 12:07:09;;;;;;;;;;;23.20;99.90;;;;;;5036927;28;19975;-75
2021/09/26 12:09:38;;;;;;;;;;;23.30;99.90;;;;;;5037380;28;20003;-78
2021/09/26 12:12:05;;;;;;;;;;;23.40;99.90;;;;;;5058475;28;19963;-78
2021/09/26 12:14:31;;;;;;;;;;;23.40;99.90;;;;;;5034748;28;19924;-79
2021/09/26 12:16:57;;;;;;;;;;;23.30;99.90;;;;;;5036827;28;19916;-78
2021/09/26 12:19:23;;;;;;;;;;;23.20;99.90;;;;;;5057766;28;20351;-78
2021/09/26 12:21:57;;;;;;;;;;;23.10;99.90;;;;;;5056270;28;19917;-79
2021/09/26 12:24:29;;;;;;;;;;;23.00;99.90;;;;;;5052903;28;20096;-77
2021/09/26 12:26:54;;;;;;;;;;;23.00;99.90;;;;;;5049500;28;20015;-78
2021/09/26 12:29:22;;;;;;;;;;;23.00;99.90;;;;;;5053242;28;20285;-80
2021/09/26 12:31:51;;;;;;;;;;;23.10;99.90;;;;;;5057348;28;19960;-75
2021/09/26 12:34:25;;;;;;;;;;;23.10;99.90;;;;;;5057216;28;19917;-79
2021/09/26 12:36:53;;;;;;;;;;;23.10;99.90;;;;;;5056766;28;20236;-79
2021/09/26 12:39:22;;;;;;;;;;;23.20;99.90;;;;;;5057589;28;19913;-79
2021/09/26 12:41:50;;;;;;;;;;;23.20;99.90;;;;;;5061064;28;19913;-80
2021/09/26 12:44:22;;;;;;;;;;;23.20;99.90;;;;;;5057160;28;19928;-79
2021/09/26 12:46:48;;;;;;;;;;;23.30;99.90;;;;;;5054763;28;19923;-76
2021/09/26 12:49:16;;;;;;;;;;;23.30;99.90;;;;;;5057832;28;19916;-78
2021/09/26 12:51:47;;;;;;;;;;;23.30;99.90;;;;;;5039634;28;19967;-79
2021/09/26 12:54:13;;;;;;;;;;;23.30;99.90;;;;;;5044872;28;19921;-79
2021/09/26 12:56:41;;;;;;;;;;;23.30;99.90;;;;;;5059711;28;19970;-79
2021/09/26 12:59:37;;;;;;;;;;;23.40;99.90;;;;;;5054663;28;19924;-79
2021/09/26 13:02:03;;;;;;;;;;;23.20;99.90;;;;;;5041974;28;20016;-76
2021/09/26 13:04:29;;;;;;;;;;;23.20;99.90;;;;;;5048966;28;20387;-79
2021/09/26 13:06:56;;;;;;;;;;;23.20;99.90;;;;;;5038111;28;19916;-79
2021/09/26 13:09:22;;;;;;;;;;;23.20;99.90;;;;;;5051981;28;20003;-78
2021/09/26 13:11:48;;;;;;;;;;;23.30;99.90;;;;;;5048252;28;20376;-76
2021/09/26 13:14:17;;;;;;;;;;;23.30;99.90;;;;;;5050812;28;20029;-78
2021/09/26 13:16:47;;;;;;;;;;;23.30;99.90;;;;;;5035673;28;19959;-78
2021/09/26 13:19:25;;;;;;;;;;;23.20;99.90;;;;;;5050400;28;19913;-78
2021/09/26 13:22:08;;;;;;;;;;;23.10;99.90;;;;;;5052637;28;19912;-79
2021/09/26 13:24:36;;;;;;;;;;;23.10;99.90;;;;;;5049046;28;19925;-79
2021/09/26 13:27:20;;;;;;;;;;;23.10;99.90;;;;;;5035720;28;19917;-78
2021/09/26 13:29:46;;;;;;;;;;;23.00;99.90;;;;;;5055812;28;19917;-79
2021/09/26 13:32:15;;;;;;;;;;;22.80;99.90;;;;;;5051068;28;19917;-79
2021/09/26 13:34:41;;;;;;;;;;;22.70;99.90;;;;;;5054219;28;19924;-77
2021/09/26 13:37:07;;;;;;;;;;;22.70;99.90;;;;;;5054821;28;19920;-76
2021/09/26 13:39:38;;;;;;;;;;;22.70;99.90;;;;;;5052434;28;19913;-76
2021/09/26 13:42:06;;;;;;;;;;;22.70;99.90;;;;;;5056864;28;20057;-79
2021/09/26 13:44:31;;;;;;;;;;;22.60;99.90;;;;;;5052551;28;19928;-78
2021/09/26 13:46:57;;;;;;;;;;;22.60;99.90;;;;;;5035346;28;19921;-80
2021/09/26 13:49:24;;;;;;;;;;;22.60;99.90;;;;;;5054878;28;19917;-78
2021/09/26 13:51:49;;;;;;;;;;;22.60;99.90;;;;;;5040475;28;19923;-78
2021/09/26 13:54:15;;;;;;;;;;;22.50;99.90;;;;;;5034510;28;20007;-78
2021/09/26 13:56:41;;;;;;;;;;;22.50;99.90;;;;;;5063919;28;19951;-81
2021/09/26 13:59:07;;;;;;;;;;;22.40;99.90;;;;;;5059228;28;20003;-80
2021/09/26 14:01:33;;;;;;;;;;;22.40;99.90;;;;;;5033327;28;20024;-77
2021/09/26 14:03:59;;;;;;;;;;;22.40;99.90;;;;;;5062240;28;19916;-79
2021/09/26 14:06:24;;;;;;;;;;;22.40;99.90;;;;;;5044892;28;19936;-80
2021/09/26 14:08:50;;;;;;;;;;;22.30;99.90;;;;;;5058096;28;20273;-76
2021/09/26 14:11:17;;;;;;;;;;;22.30;99.90;;;;;;5062399;28;20011;-78
2021/09/26 14:13:43;;;;;;;;;;;22.30;99.90;;;;;;5062302;28;19916;-76
2021/09/26 14:16:09;;;;;;;;;;;22.30;99.90;;;;;;5043868;28;19920;-78
2021/09/26 14:18:34;;;;;;;;;;;22.30;99.90;;;;;;5063707;28;19912;-79